Time;durP1;ratioP1;P1;durP2;ratioP2;P2;SDS_P1;SDS_P2;PMS_P1;PMS_P2;Temp;Humidity;BMP_temperature;BMP_pressure;BME280_temperature;BME280_humidity;BME280_pressure;Samples;Min_cycle;Max_cycle;Signal;HPM_P1;HPM_P2
2022/08/08 00:00:32;;;;;;;;;;;;;;;25.48;56.41;95010.03;4990767;28;19940;-59
2022/08/08 00:02:59;;;;;;;;;;;;;;;25.45;56.34;95016.56;5005974;28;20396;-59
2022/08/08 00:05:29;;;;;;;;;;;;;;;25.48;56.30;95018.25;4995915;28;20685;-59
2022/08/08 00:08:03;;;;;;;;;;;;;;;25.48;56.37;95010.03;5002640;28;19921;-58
2022/08/08 00:10:29;;;;;;;;;;;;;;;25.46;56.31;95020.78;4990667;28;19959;-60
2022/08/08 00:12:58;;;;;;;;;;;;;;;25.38;56.39;95022.63;4991459;28;19914;-59
2022/08/08 00:15:26;;;;;;;;;;;;;;;25.36;56.29;95025.16;4985774;28;19922;-60
2022/08/08 00:17:57;;;;;;;;;;;;;;;25.34;56.65;95024.94;4986471;28;19922;-59
2022/08/08 00:20:28;;;;;;;;;;;;;;;25.29;56.73;95014.84;5008119;28;19975;-59
2022/08/08 00:22:54;;;;;;;;;;;;;;;25.28;56.60;95021.56;4991883;28;19949;-59
2022/08/08 00:25:27;;;;;;;;;;;;;;;25.24;56.43;95029.31;4996030;28;20019;-61
2022/08/08 00:27:53;;;;;;;;;;;;;;;25.21;56.89;95030.38;4980097;28;19956;-62
2022/08/08 00:30:19;;;;;;;;;;;;;;;25.23;56.82;95030.59;4995994;28;21596;-62
2022/08/08 00:32:51;;;;;;;;;;;;;;;25.19;56.56;95032.88;5004214;28;19928;-61
2022/08/08 00:35:34;;;;;;;;;;;;;;;25.17;56.96;95038.16;4980865;28;19953;-60
2022/08/08 00:38:05;;;;;;;;;;;;;;;25.13;56.64;95023.31;5002344;28;20059;-61
2022/08/08 00:40:37;;;;;;;;;;;;;;;25.16;56.88;95023.00;5000937;28;19921;-59
2022/08/08 00:43:20;;;;;;;;;;;;;;;25.20;56.52;95028.91;5006219;28;20380;-58
2022/08/08 00:45:49;;;;;;;;;;;;;;;25.18;56.64;95031.41;4998690;28;19921;-58
2022/08/08 00:48:32;;;;;;;;;;;;;;;25.14;56.58;95028.25;4978938;28;19976;-62
2022/08/08 00:51:07;;;;;;;;;;;;;;;25.08;57.11;95033.06;4998764;28;19992;-62
2022/08/08 00:53:59;;;;;;;;;;;;;;;25.05;56.84;95027.88;4996851;28;19949;-61
2022/08/08 00:56:42;;;;;;;;;;;;;;;24.96;57.23;95020.78;4968323;28;20419;-61
2022/08/08 00:59:13;;;;;;;;;;;;;;;24.93;57.32;95027.31;4997980;28;20079;-62
2022/08/08 01:01:48;;;;;;;;;;;;;;;24.94;57.07;95028.75;4996830;28;19917;-59
2022/08/08 01:04:32;;;;;;;;;;;;;;;24.97;57.11;95030.44;4980425;28;20407;-58
2022/08/08 01:07:06;;;;;;;;;;;;;;;24.93;56.95;95032.75;4993438;28;19921;-61
2022/08/08 01:09:44;;;;;;;;;;;;;;;24.87;57.42;95036.81;4996883;28;19917;-60
2022/08/08 01:12:37;;;;;;;;;;;;;;;24.82;57.80;95032.16;5012599;28;20043;-64
2022/08/08 01:15:05;;;;;;;;;;;;;;;24.82;57.52;95043.81;4990984;28;19960;-60
2022/08/08 01:17:49;;;;;;;;;;;;;;;24.80;57.49;95044.88;4997269;28;19987;-61
2022/08/08 01:20:34;;;;;;;;;;;;;;;24.77;57.53;95041.19;4992469;28;19913;-61
2022/08/08 01:23:06;;;;;;;;;;;;;;;24.76;57.50;95033.50;4999432;28;20049;-60
2022/08/08 01:25:46;;;;;;;;;;;;;;;24.72;57.75;95044.00;4995110;28;20004;-66
2022/08/08 01:28:47;;;;;;;;;;;;;;;24.72;57.53;95038.53;4992495;28;19917;-58
2022/08/08 01:31:31;;;;;;;;;;;;;;;24.68;57.69;95049.00;4929371;28;20330;-59
2022/08/08 01:34:15;;;;;;;;;;;;;;;24.67;58.16;95053.00;4994669;28;19924;-60
2022/08/08 01:36:56;;;;;;;;;;;;;;;24.63;58.60;95060.75;5001196;28;19956;-62
2022/08/08 01:39:39;;;;;;;;;;;;;;;24.60;58.64;95068.00;5002345;28;19921;-58
2022/08/08 01:42:08;;;;;;;;;;;;;;;24.60;58.81;95062.53;5000130;28;19909;-59
2022/08/08 01:44:53;;;;;;;;;;;;;;;24.61;58.26;95055.78;5012908;28;20011;-63
2022/08/08 01:47:24;;;;;;;;;;;;;;;24.62;58.00;95061.97;5000627;28;19917;-60
2022/08/08 01:50:08;;;;;;;;;;;;;;;24.63;58.24;95058.00;5007598;28;19917;-60
2022/08/08 01:52:37;;;;;;;;;;;;;;;24.61;57.84;95066.00;5000321;28;19950;-59
2022/08/08 01:55:08;;;;;;;;;;;;;;;24.63;58.25;95061.47;5017269;28;19960;-58
2022/08/08 01:57:37;;;;;;;;;;;;;;;24.69;57.98;95067.59;4998279;28;19914;-60
2022/08/08 02:00:18;;;;;;;;;;;;;;;24.75;58.12;95064.81;5001337;28;19924;-59
2022/08/08 02:03:01;;;;;;;;;;;;;;;24.77;57.72;95065.78;4998092;28;19924;-59
2022/08/08 02:05:34;;;;;;;;;;;;;;;24.68;57.86;95054.47;5006409;28;19921;-59
2022/08/08 02:08:20;;;;;;;;;;;;;;;24.67;57.78;95069.38;5003511;28;19936;-63
2022/08/08 02:11:04;;;;;;;;;;;;;;;24.67;57.68;95059.19;5001862;28;20324;-62
2022/08/08 02:13:29;;;;;;;;;;;;;;;24.57;57.95;95063.56;4999082;28;19920;-58
2022/08/08 02:16:00;;;;;;;;;;;;;;;24.47;58.51;95062.44;4995903;28;19921;-60
2022/08/08 02:18:38;;;;;;;;;;;;;;;24.43;58.71;95061.25;4983612;28;20242;-60
2022/08/08 02:24:23;;;;;;;;;;;;;;;24.46;57.62;95054.75;4980238;28;20012;-63
2022/08/08 02:26:50;;;;;;;;;;;;;;;24.35;58.03;95063.09;5002884;28;19980;-60
2022/08/08 02:29:31;;;;;;;;;;;;;;;24.35;58.17;95060.34;5007084;28;19913;-62
2022/08/08 02:32:15;;;;;;;;;;;;;;;24.34;58.28;95064.34;4994570;28;19917;-59
2022/08/08 02:34:59;;;;;;;;;;;;;;;24.27;58.58;95059.41;4996144;28;20379;-62
2022/08/08 02:37:30;;;;;;;;;;;;;;;24.24;58.35;95060.44;4992008;28;20048;-61
2022/08/08 02:40:25;;;;;;;;;;;;;;;24.21;58.33;95066.91;5005661;28;19917;-63
2022/08/08 02:43:09;;;;;;;;;;;;;;;24.18;58.76;95073.41;4993119;28;20286;-59
2022/08/08 02:45:43;;;;;;;;;;;;;;;24.17;58.89;95077.41;4998188;28;21253;-59
2022/08/08 02:48:27;;;;;;;;;;;;;;;24.22;58.75;95073.88;5005398;28;20378;-60
2022/08/08 02:51:11;;;;;;;;;;;;;;;24.26;58.35;95079.03;4990787;28;19923;-58
2022/08/08 02:53:55;;;;;;;;;;;;;;;24.05;58.31;95059.69;4994819;28;19914;-58
2022/08/08 02:56:35;;;;;;;;;;;;;;;24.23;58.20;95080.06;4995002;28;19918;-60
2022/08/08 02:59:21;;;;;;;;;;;;;;;24.25;58.08;95083.75;4991757;28;20384;-60
2022/08/08 03:01:49;;;;;;;;;;;;;;;24.15;58.36;95079.16;4985195;28;19914;-61
2022/08/08 03:04:33;;;;;;;;;;;;;;;24.08;58.33;95075.03;4996269;28;19918;-59
2022/08/08 03:07:04;;;;;;;;;;;;;;;24.02;58.13;95081.75;4998364;28;19924;-62
2022/08/08 03:09:45;;;;;;;;;;;;;;;24.04;58.55;95085.47;4998932;28;20004;-61
2022/08/08 03:12:16;;;;;;;;;;;;;;;24.11;58.37;95076.72;4995429;28;19905;-61
2022/08/08 03:14:41;;;;;;;;;;;;;;;24.04;58.50;95074.56;4997585;28;19917;-62
2022/08/08 03:17:13;;;;;;;;;;;;;;;24.03;58.73;95078.53;4998502;28;20008;-59
2022/08/08 03:19:57;;;;;;;;;;;;;;;24.05;58.25;95080.75;4996914;28;20386;-61
2022/08/08 03:22:22;;;;;;;;;;;;;;;24.02;58.36;95087.22;4997415;28;19924;-60
2022/08/08 03:24:50;;;;;;;;;;;;;;;23.92;58.44;95086.81;5002910;28;19920;-64
2022/08/08 03:27:17;;;;;;;;;;;;;;;23.91;58.86;95088.06;4994927;28;19972;-59
2022/08/08 03:29:44;;;;;;;;;;;;;;;23.93;58.77;95091.03;4996221;28;19921;-59
2022/08/08 03:34:53;;;;;;;;;;;;;;;23.92;58.44;95092.28;4994051;28;21285;-58
2022/08/08 03:37:18;;;;;;;;;;;;;;;23.88;58.72;95097.31;4993502;28;20320;-59
2022/08/08 03:39:44;;;;;;;;;;;;;;;23.96;58.47;95094.72;4985442;28;19936;-62
2022/08/08 03:42:16;;;;;;;;;;;;;;;24.05;58.17;95092.41;4995469;28;19967;-61
2022/08/08 03:44:41;;;;;;;;;;;;;;;24.15;58.17;95090.81;4996270;28;19925;-58
2022/08/08 03:47:06;;;;;;;;;;;;;;;24.21;57.59;95093.47;4996124;28;19910;-58
2022/08/08 03:49:32;;;;;;;;;;;;;;;24.26;57.65;95101.63;4998564;28;19921;-61
2022/08/08 03:51:57;;;;;;;;;;;;;;;24.30;57.57;95107.50;4990989;28;19924;-60
2022/08/08 03:54:22;;;;;;;;;;;;;;;24.33;57.43;95097.59;4998382;28;20421;-60
2022/08/08 03:56:48;;;;;;;;;;;;;;;24.37;57.17;95101.53;4994294;28;19925;-59
2022/08/08 03:59:13;;;;;;;;;;;;;;;24.40;57.21;95111.41;4997283;28;19921;-60
2022/08/08 04:01:39;;;;;;;;;;;;;;;24.43;56.99;95100.19;4996192;28;19921;-59
2022/08/08 04:04:04;;;;;;;;;;;;;;;24.46;57.09;95109.34;5009621;28;19921;-59
2022/08/08 04:06:30;;;;;;;;;;;;;;;24.50;56.67;95109.81;4995801;28;19921;-58
2022/08/08 04:08:56;;;;;;;;;;;;;;;24.51;57.03;95114.00;5011577;28;19924;-59
2022/08/08 04:11:21;;;;;;;;;;;;;;;24.53;56.75;95108.78;4995298;28;19941;-60
2022/08/08 04:13:46;;;;;;;;;;;;;;;24.57;56.78;95109.22;4995078;28;20004;-58
2022/08/08 04:16:12;;;;;;;;;;;;;;;24.60;56.61;95119.13;4998859;28;19917;-61
2022/08/08 04:18:38;;;;;;;;;;;;;;;24.62;56.77;95111.13;4995495;28;20407;-60
2022/08/08 04:21:03;;;;;;;;;;;;;;;24.65;57.00;95110.09;4995381;28;19921;-59
2022/08/08 04:23:29;;;;;;;;;;;;;;;24.67;56.86;95113.09;4993731;28;19920;-58
2022/08/08 04:25:54;;;;;;;;;;;;;;;24.69;56.74;95114.03;4996429;28;19917;-60
2022/08/08 04:28:19;;;;;;;;;;;;;;;24.73;56.94;95116.47;4989390;28;20284;-59
2022/08/08 04:30:45;;;;;;;;;;;;;;;24.75;56.87;95113.97;4986649;28;19920;-57
2022/08/08 04:33:11;;;;;;;;;;;;;;;24.78;56.74;95121.13;4987534;28;20410;-60
2022/08/08 04:35:36;;;;;;;;;;;;;;;24.81;57.07;95129.03;4991189;28;19983;-61
2022/08/08 04:38:01;;;;;;;;;;;;;;;24.82;56.95;95125.78;4993398;28;21224;-59
2022/08/08 04:40:27;;;;;;;;;;;;;;;24.83;56.97;95119.06;4991342;28;20363;-61
2022/08/08 04:42:52;;;;;;;;;;;;;;;24.85;56.88;95129.47;4985898;28;19914;-59
2022/08/08 04:45:17;;;;;;;;;;;;;;;24.85;57.20;95130.22;4989894;28;20236;-61
2022/08/08 04:47:43;;;;;;;;;;;;;;;24.89;56.93;95135.41;4986308;28;20425;-61
2022/08/08 04:50:08;;;;;;;;;;;;;;;24.91;57.05;95128.16;4986970;28;19917;-59
2022/08/08 04:52:33;;;;;;;;;;;;;;;24.93;57.03;95124.91;4990402;28;19913;-64
2022/08/08 04:54:59;;;;;;;;;;;;;;;24.94;57.20;95138.03;4991072;28;19921;-59
2022/08/08 04:57:24;;;;;;;;;;;;;;;24.96;56.58;95135.56;4988879;28;19920;-58
2022/08/08 04:59:49;;;;;;;;;;;;;;;24.98;57.12;95133.03;4989157;28;19983;-58
2022/08/08 05:02:14;;;;;;;;;;;;;;;25.02;56.93;95138.22;4989134;28;19928;-65
2022/08/08 05:04:40;;;;;;;;;;;;;;;25.06;56.97;95144.88;4985188;28;19913;-63
2022/08/08 05:07:05;;;;;;;;;;;;;;;25.10;57.05;95134.38;4989979;28;19917;-59
2022/08/08 05:09:31;;;;;;;;;;;;;;;25.12;56.56;95137.34;4983725;28;20402;-61
2022/08/08 05:11:56;;;;;;;;;;;;;;;25.14;56.42;95140.31;4986890;28;19924;-61
2022/08/08 05:14:21;;;;;;;;;;;;;;;25.17;57.01;95147.47;4986972;28;20428;-60
2022/08/08 05:16:47;;;;;;;;;;;;;;;25.20;57.21;95138.25;4996869;28;20419;-62
2022/08/08 05:19:12;;;;;;;;;;;;;;;25.23;58.45;95142.66;4998164;28;20009;-63
2022/08/08 05:21:39;;;;;;;;;;;;;;;25.29;58.07;95140.59;4997545;28;19988;-62
2022/08/08 05:24:04;;;;;;;;;;;;;;;25.26;56.18;95149.84;5000150;28;20008;-61
2022/08/08 05:26:30;;;;;;;;;;;;;;;24.97;55.92;95153.41;5017644;28;20399;-61
2022/08/08 05:28:55;;;;;;;;;;;;;;;24.93;55.45;95157.69;5000199;28;20304;-58
2022/08/08 05:31:20;;;;;;;;;;;;;;;24.91;56.17;95155.47;4999049;28;20380;-69
2022/08/08 05:33:46;;;;;;;;;;;;;;;24.86;56.05;95153.53;4996032;28;19919;-63
2022/08/08 05:36:11;;;;;;;;;;;;;;;24.82;56.18;95157.09;4995727;28;19922;-62
2022/08/08 05:38:39;;;;;;;;;;;;;;;24.91;56.43;95158.19;5001077;28;19921;-58
2022/08/08 05:41:04;;;;;;;;;;;;;;;24.87;55.93;95146.84;4993060;28;19914;-57
2022/08/08 05:43:31;;;;;;;;;;;;;;;24.95;55.34;95161.38;4976996;28;20707;-66
2022/08/08 05:46:02;;;;;;;;;;;;;;;25.10;55.31;95155.53;4999360;28;20000;-69
2022/08/08 05:48:27;;;;;;;;;;;;;;;25.20;54.38;95164.81;4996261;28;20420;-70
2022/08/08 05:50:53;;;;;;;;;;;;;;;25.15;53.93;95158.16;4993568;28;19921;-67
2022/08/08 05:53:24;;;;;;;;;;;;;;;25.26;53.96;95158.03;4990828;28;19930;-64
2022/08/08 05:55:50;;;;;;;;;;;;;;;25.30;53.77;95157.72;4988522;28;19918;-59
2022/08/08 05:58:15;;;;;;;;;;;;;;;25.44;54.06;95157.25;4996296;28;19967;-66
2022/08/08 06:00:40;;;;;;;;;;;;;;;25.48;53.91;95146.75;5000861;28;19964;-68
2022/08/08 06:03:09;;;;;;;;;;;;;;;25.69;53.67;95161.41;4989316;28;19914;-57
2022/08/08 06:05:35;;;;;;;;;;;;;;;25.92;53.31;95157.81;4999768;28;20012;-66
2022/08/08 06:08:00;;;;;;;;;;;;;;;26.14;52.93;95158.13;4992055;28;19997;-61
2022/08/08 06:10:29;;;;;;;;;;;;;;;26.30;52.01;95157.16;4989854;28;19925;-59
2022/08/08 06:12:54;;;;;;;;;;;;;;;26.49;51.51;95160.56;4992326;28;19937;-63
2022/08/08 06:15:20;;;;;;;;;;;;;;;26.70;51.10;95164.13;4996961;28;20387;-60
2022/08/08 06:17:45;;;;;;;;;;;;;;;26.85;51.14;95160.31;5000399;28;20000;-62
2022/08/08 06:20:11;;;;;;;;;;;;;;;27.02;50.51;95163.47;4995401;28;19932;-61
2022/08/08 06:22:36;;;;;;;;;;;;;;;27.13;50.21;95163.28;4997661;28;19953;-60
2022/08/08 06:25:02;;;;;;;;;;;;;;;27.21;49.90;95158.59;4994037;28;20449;-59
2022/08/08 06:27:46;;;;;;;;;;;;;;;27.25;49.69;95159.03;4991717;28;19972;-58
2022/08/08 06:30:12;;;;;;;;;;;;;;;27.28;49.63;95163.44;4993150;28;20036;-56
2022/08/08 06:32:44;;;;;;;;;;;;;;;27.26;50.09;95157.75;4992113;28;20048;-57
2022/08/08 06:35:10;;;;;;;;;;;;;;;27.26;50.04;95160.47;4992422;28;19957;-57
2022/08/08 06:37:36;;;;;;;;;;;;;;;27.30;49.93;95166.38;4992245;28;20440;-60
2022/08/08 06:40:02;;;;;;;;;;;;;;;27.33;49.90;95170.81;4991707;28;19914;-63
2022/08/08 06:42:28;;;;;;;;;;;;;;;27.32;49.91;95172.06;4989737;28;19930;-58
2022/08/08 06:44:53;;;;;;;;;;;;;;;27.27;50.13;95167.44;4995252;28;19953;-58
2022/08/08 06:47:19;;;;;;;;;;;;;;;27.27;50.30;95175.69;4992448;28;20386;-60
2022/08/08 06:49:46;;;;;;;;;;;;;;;27.26;50.28;95171.44;5021975;28;19925;-58
2022/08/08 06:52:11;;;;;;;;;;;;;;;27.26;50.34;95171.44;5004305;28;19944;-64
2022/08/08 06:54:37;;;;;;;;;;;;;;;27.26;50.12;95171.44;4986910;28;20344;-59
2022/08/08 06:57:02;;;;;;;;;;;;;;;27.27;50.04;95172.94;5007859;28;19971;-58
2022/08/08 06:59:27;;;;;;;;;;;;;;;27.21;50.28;95169.56;4997017;28;19918;-63
2022/08/08 07:01:58;;;;;;;;;;;;;;;27.22;50.02;95176.53;4992836;28;19975;-57
2022/08/08 07:04:42;;;;;;;;;;;;;;;27.20;50.22;95176.31;5015093;28;19968;-58
2022/08/08 07:07:08;;;;;;;;;;;;;;;27.17;50.02;95171.91;5003921;28;19925;-57
2022/08/08 07:09:37;;;;;;;;;;;;;;;27.14;49.83;95172.94;4993596;28;19968;-58
2022/08/08 07:12:05;;;;;;;;;;;;;;;27.19;50.38;95177.59;4991788;28;19925;-60
2022/08/08 07:14:42;;;;;;;;;;;;;;;27.16;50.17;95167.69;5004495;28;20553;-60
2022/08/08 07:17:09;;;;;;;;;;;;;;;27.04;49.95;95150.00;4995130;28;19922;-58
2022/08/08 07:19:43;;;;;;;;;;;;;;;27.18;49.84;95169.91;4994088;28;19940;-58
2022/08/08 07:22:09;;;;;;;;;;;;;;;27.16;49.47;95167.69;4989875;28;20411;-58
2022/08/08 07:24:35;;;;;;;;;;;;;;;27.17;49.74;95173.91;4988585;28;19918;-64
2022/08/08 07:27:01;;;;;;;;;;;;;;;27.18;50.39;95170.63;4989047;28;19921;-60
2022/08/08 07:29:27;;;;;;;;;;;;;;;27.19;50.46;95172.13;5003463;28;19922;-59
2022/08/08 07:31:52;;;;;;;;;;;;;;;27.20;49.98;95179.06;4981585;28;19916;-63
2022/08/08 07:34:17;;;;;;;;;;;;;;;27.16;50.68;95162.22;4996539;28;19920;-57
2022/08/08 07:36:43;;;;;;;;;;;;;;;27.21;50.58;95169.56;4999777;28;19921;-61
2022/08/08 07:39:08;;;;;;;;;;;;;;;27.22;50.29;95176.53;4990947;28;19928;-59
2022/08/08 07:41:35;;;;;;;;;;;;;;;27.22;50.56;95171.06;4978873;28;19924;-62
2022/08/08 07:44:00;;;;;;;;;;;;;;;27.23;50.58;95167.03;5013486;28;19918;-61
2022/08/08 07:46:26;;;;;;;;;;;;;;;27.24;50.16;95165.78;4998856;28;19917;-57
2022/08/08 07:48:51;;;;;;;;;;;;;;;27.25;49.68;95170.72;4992666;28;19921;-57
2022/08/08 07:51:16;;;;;;;;;;;;;;;27.25;49.59;95159.03;4995290;28;20560;-57
2022/08/08 07:54:02;;;;;;;;;;;;;;;27.24;49.93;95163.03;4973555;28;20312;-58
2022/08/08 07:56:27;;;;;;;;;;;;;;;27.25;49.45;95170.00;4984156;28;19921;-58
2022/08/08 07:58:53;;;;;;;;;;;;;;;27.25;49.51;95153.53;4982814;28;20486;-57
2022/08/08 08:01:20;;;;;;;;;;;;;;;27.26;49.60;95155.00;4985470;28;19922;-60
2022/08/08 08:03:45;;;;;;;;;;;;;;;27.28;49.52;95152.47;4984218;28;19928;-61
2022/08/08 08:06:10;;;;;;;;;;;;;;;27.28;49.04;95155.22;4991577;28;19921;-57
2022/08/08 08:08:36;;;;;;;;;;;;;;;27.28;49.33;95153.22;4983975;28;20491;-61
2022/08/08 08:11:01;;;;;;;;;;;;;;;27.28;48.93;95147.00;4983378;28;19921;-57
2022/08/08 08:13:29;;;;;;;;;;;;;;;27.31;49.34;95148.69;4986638;28;20028;-60
2022/08/08 08:16:00;;;;;;;;;;;;;;;27.31;48.24;95151.41;4985774;28;20012;-59
2022/08/08 08:18:25;;;;;;;;;;;;;;;27.31;48.31;95148.69;4985760;28;19918;-58
2022/08/08 08:20:51;;;;;;;;;;;;;;;27.32;48.41;95150.13;4990366;28;19917;-57
2022/08/08 08:23:16;;;;;;;;;;;;;;;27.31;48.25;95145.94;4993010;28;19925;-58
2022/08/08 08:25:41;;;;;;;;;;;;;;;27.32;48.37;95147.38;4991973;28;19967;-58
2022/08/08 08:28:07;;;;;;;;;;;;;;;27.32;47.94;95147.38;4994453;28;20353;-58
2022/08/08 08:30:32;;;;;;;;;;;;;;;27.34;48.16;95147.59;4984604;28;19928;-59
2022/08/08 08:32:57;;;;;;;;;;;;;;;27.33;48.17;95143.38;4984668;28;20011;-58
2022/08/08 08:35:23;;;;;;;;;;;;;;;27.34;48.02;95144.88;4985469;28;19913;-57
2022/08/08 08:37:49;;;;;;;;;;;;;;;27.34;48.08;95145.59;4988299;28;19979;-63
2022/08/08 08:40:14;;;;;;;;;;;;;;;27.37;47.71;95143.81;4989707;28;19992;-61
2022/08/08 08:42:39;;;;;;;;;;;;;;;27.39;47.00;95141.25;4993560;28;19906;-62
2022/08/08 08:45:05;;;;;;;;;;;;;;;27.38;46.81;95139.78;5003666;28;19913;-59
2022/08/08 08:47:30;;;;;;;;;;;;;;;27.27;46.27;95123.56;4994502;28;19925;-62
2022/08/08 08:49:56;;;;;;;;;;;;;;;27.39;46.47;95135.78;4985840;28;19910;-61
2022/08/08 08:52:21;;;;;;;;;;;;;;;27.40;45.88;95131.78;4992067;28;19980;-59
2022/08/08 08:54:46;;;;;;;;;;;;;;;27.40;46.14;95131.78;4989255;28;19914;-58
2022/08/08 08:57:12;;;;;;;;;;;;;;;27.42;46.06;95134.69;4981410;28;20425;-58
2022/08/08 08:59:39;;;;;;;;;;;;;;;27.43;45.42;95136.19;4999544;28;20011;-58
2022/08/08 09:02:05;;;;;;;;;;;;;;;27.47;45.72;95125.59;4989191;28;19932;-61
2022/08/08 09:04:32;;;;;;;;;;;;;;;27.49;44.37;95128.56;4985039;28;19917;-63
2022/08/08 09:06:57;;;;;;;;;;;;;;;27.52;44.61;95116.53;4983801;28;19921;-64
2022/08/08 09:09:24;;;;;;;;;;;;;;;27.53;44.37;95115.25;4985365;28;19921;-59
2022/08/08 09:11:49;;;;;;;;;;;;;;;27.57;44.32;95110.19;5004000;28;19924;-59
2022/08/08 09:14:14;;;;;;;;;;;;;;;27.62;43.98;95109.31;4977285;28;19918;-58
2022/08/08 09:16:39;;;;;;;;;;;;;;;27.66;44.02;95115.94;4982840;28;19917;-58
2022/08/08 09:19:05;;;;;;;;;;;;;;;27.73;44.06;95109.03;4995040;28;19917;-59
2022/08/08 09:21:30;;;;;;;;;;;;;;;27.81;43.77;95105.84;4996543;28;20312;-66
2022/08/08 09:23:55;;;;;;;;;;;;;;;27.95;43.01;95106.50;4985044;28;19913;-68
2022/08/08 09:26:56;;;;;;;;;;;;;;;28.07;42.57;95111.19;4986132;28;20000;-68
2022/08/08 09:29:22;;;;;;;;;;;;;;;28.24;41.89;95108.78;4969595;28;19922;-59
2022/08/08 09:31:54;;;;;;;;;;;;;;;28.34;41.91;95101.50;4984571;28;19971;-64
2022/08/08 09:34:19;;;;;;;;;;;;;;;28.53;42.11;95096.50;4985044;28;20045;-58
2022/08/08 09:36:46;;;;;;;;;;;;;;;28.69;41.16;95093.31;4986543;28;20016;-61
2022/08/08 09:39:11;;;;;;;;;;;;;;;28.79;41.12;95092.25;4988393;28;19917;-61
2022/08/08 09:41:38;;;;;;;;;;;;;;;28.99;40.68;95088.69;4987911;28;19924;-58
2022/08/08 09:44:12;;;;;;;;;;;;;;;29.21;39.15;95088.03;4996461;28;19913;-56
2022/08/08 09:46:37;;;;;;;;;;;;;;;29.41;38.61;95089.94;4986626;28;19922;-58
2022/08/08 09:49:03;;;;;;;;;;;;;;;29.52;38.45;95078.56;4996879;28;19925;-62
2022/08/08 09:51:29;;;;;;;;;;;;;;;29.58;36.40;95081.88;4986905;28;19925;-60
2022/08/08 09:53:56;;;;;;;;;;;;;;;29.70;37.67;95069.94;4991565;28;20434;-61
2022/08/08 09:56:22;;;;;;;;;;;;;;;29.79;37.50;95064.69;5000566;28;20322;-63
2022/08/08 09:58:50;;;;;;;;;;;;;;;29.88;37.20;95066.88;4992303;28;19914;-65
2022/08/08 10:01:17;;;;;;;;;;;;;;;29.95;37.35;95071.63;5007053;28;19948;-63
2022/08/08 10:03:43;;;;;;;;;;;;;;;30.07;36.74;95067.22;5014989;28;20168;-58
2022/08/08 10:06:17;;;;;;;;;;;;;;;30.13;37.04;95064.28;4988961;28;20369;-63
2022/08/08 10:08:46;;;;;;;;;;;;;;;30.27;36.91;95060.78;4977653;28;19924;-62
2022/08/08 10:11:15;;;;;;;;;;;;;;;30.31;36.89;95053.63;4994432;28;19906;-58
2022/08/08 10:13:50;;;;;;;;;;;;;;;30.41;37.04;95051.03;4989385;28;19914;-63
2022/08/08 10:16:16;;;;;;;;;;;;;;;30.44;36.40;95038.91;5004199;28;19917;-65
2022/08/08 10:18:41;;;;;;;;;;;;;;;30.50;36.46;95031.19;4992850;28;20499;-57
2022/08/08 10:21:07;;;;;;;;;;;;;;;30.49;36.91;95033.19;5002785;28;20311;-57
2022/08/08 10:23:36;;;;;;;;;;;;;;;30.28;37.08;95020.91;4985075;28;20016;-58
2022/08/08 10:26:01;;;;;;;;;;;;;;;29.95;37.67;95033.06;5000453;28;19917;-58
2022/08/08 10:28:28;;;;;;;;;;;;;;;29.68;39.19;95026.44;4987122;28;19913;-57
2022/08/08 10:30:54;;;;;;;;;;;;;;;29.41;39.82;95029.38;5013818;28;19932;-58
2022/08/08 10:33:26;;;;;;;;;;;;;;;29.36;40.17;95033.06;4986986;28;20369;-60
2022/08/08 10:35:55;;;;;;;;;;;;;;;29.14;40.74;95033.72;4993665;28;20316;-67
2022/08/08 10:38:20;;;;;;;;;;;;;;;29.22;40.03;95028.94;4987204;28;20667;-59
2022/08/08 10:40:49;;;;;;;;;;;;;;;29.07;40.86;95028.91;5001911;28;20040;-57
2022/08/08 10:43:14;;;;;;;;;;;;;;;28.96;40.92;95037.50;5003288;28;19921;-59
2022/08/08 10:45:43;;;;;;;;;;;;;;;28.94;40.81;95026.34;4998042;28;19924;-62
2022/08/08 10:48:09;;;;;;;;;;;;;;;28.72;41.65;95026.97;4986026;28;20435;-62
2022/08/08 10:50:35;;;;;;;;;;;;;;;28.65;41.53;95026.19;4987601;28;19917;-59
2022/08/08 10:53:04;;;;;;;;;;;;;;;28.46;41.58;95021.00;4987724;28;19921;-61
2022/08/08 10:55:30;;;;;;;;;;;;;;;28.34;41.97;95013.59;4987220;28;19922;-64
2022/08/08 10:57:58;;;;;;;;;;;;;;;28.19;42.25;95012.78;5002228;28;19913;-59
2022/08/08 11:00:24;;;;;;;;;;;;;;;28.15;42.70;95013.13;4993915;28;19913;-63
2022/08/08 11:02:49;;;;;;;;;;;;;;;28.03;43.15;95011.94;4996033;28;19928;-57
2022/08/08 11:05:14;;;;;;;;;;;;;;;27.83;43.13;94999.00;4995373;28;19918;-57
2022/08/08 11:07:41;;;;;;;;;;;;;;;27.84;42.98;95007.97;4998278;28;20052;-59
2022/08/08 11:10:08;;;;;;;;;;;;;;;27.74;43.15;95007.72;4979293;28;19914;-58
2022/08/08 11:12:33;;;;;;;;;;;;;;;27.62;43.45;95005.03;4993282;28;19914;-56
2022/08/08 11:15:00;;;;;;;;;;;;;;;27.46;43.97;95008.94;5009658;28;19980;-57
2022/08/08 11:17:28;;;;;;;;;;;;;;;27.41;43.87;95007.03;4990535;28;19917;-60
2022/08/08 11:19:54;;;;;;;;;;;;;;;27.38;44.34;95008.13;4995484;28;19917;-56
2022/08/08 11:22:23;;;;;;;;;;;;;;;27.22;44.79;95001.03;4988890;28;20412;-56
2022/08/08 11:24:49;;;;;;;;;;;;;;;27.09;44.98;94998.34;4988460;28;20298;-60
2022/08/08 11:27:14;;;;;;;;;;;;;;;27.01;45.16;94992.06;4987618;28;19921;-60
2022/08/08 11:29:39;;;;;;;;;;;;;;;27.05;45.32;94991.72;5001595;28;19906;-57
2022/08/08 11:32:05;;;;;;;;;;;;;;;27.06;44.98;94991.19;4986616;28;19921;-56
2022/08/08 11:34:31;;;;;;;;;;;;;;;26.96;45.24;95000.41;4986461;28;19914;-57
2022/08/08 11:36:56;;;;;;;;;;;;;;;26.86;45.52;95000.09;4985367;28;20364;-57
2022/08/08 11:39:21;;;;;;;;;;;;;;;26.78;45.94;94985.56;5000725;28;19913;-56
2022/08/08 11:41:47;;;;;;;;;;;;;;;26.70;45.96;94978.56;4986456;28;20305;-60
2022/08/08 11:44:13;;;;;;;;;;;;;;;26.64;46.11;94979.94;4986716;28;19913;-56
2022/08/08 11:46:38;;;;;;;;;;;;;;;26.61;46.22;94986.50;5011565;28;20481;-57
2022/08/08 11:49:06;;;;;;;;;;;;;;;26.57;46.32;94981.31;4986032;28;19917;-57
2022/08/08 11:51:32;;;;;;;;;;;;;;;26.53;46.36;94988.38;5000914;28;20004;-57
2022/08/08 11:53:57;;;;;;;;;;;;;;;26.48;46.28;94983.78;4986018;28;19968;-68
2022/08/08 11:56:22;;;;;;;;;;;;;;;26.45;46.43;94984.84;5002909;28;19918;-57
2022/08/08 11:58:48;;;;;;;;;;;;;;;26.35;46.59;94981.81;4966118;28;19920;-58
2022/08/08 12:01:13;;;;;;;;;;;;;;;26.33;46.75;94978.13;5004954;28;19917;-66
2022/08/08 12:03:45;;;;;;;;;;;;;;;26.27;46.82;94975.47;4989175;28;19921;-63
2022/08/08 12:06:12;;;;;;;;;;;;;;;26.26;47.10;94975.97;4990440;28;19924;-56
2022/08/08 12:08:37;;;;;;;;;;;;;;;26.24;47.22;94981.25;5013853;28;19922;-57
2022/08/08 12:11:03;;;;;;;;;;;;;;;26.22;46.84;94983.78;4992173;28;19913;-57
2022/08/08 12:13:29;;;;;;;;;;;;;;;26.19;47.24;94976.63;4991198;28;20683;-58
2022/08/08 12:15:54;;;;;;;;;;;;;;;26.18;47.16;94971.69;4984262;28;19921;-59
2022/08/08 12:18:20;;;;;;;;;;;;;;;26.18;47.37;94969.69;5011121;28;19928;-64
2022/08/08 12:20:46;;;;;;;;;;;;;;;26.18;47.17;94966.94;4976402;28;19905;-57
2022/08/08 12:23:11;;;;;;;;;;;;;;;26.14;47.22;94972.00;4985167;28;19917;-64
2022/08/08 12:25:36;;;;;;;;;;;;;;;26.15;47.38;94962.53;4985669;28;19920;-62
2022/08/08 12:28:12;;;;;;;;;;;;;;;26.14;47.47;94963.78;4992728;28;19909;-57
2022/08/08 12:30:37;;;;;;;;;;;;;;;26.15;47.58;94962.53;4975631;28;19948;-60
2022/08/08 12:33:03;;;;;;;;;;;;;;;26.16;48.15;94961.28;4978158;28;20011;-60
2022/08/08 12:35:37;;;;;;;;;;;;;;;26.19;47.93;94962.94;5001472;28;20311;-59
2022/08/08 12:38:06;;;;;;;;;;;;;;;26.14;47.96;94966.53;4991961;28;19928;-57
2022/08/08 12:40:53;;;;;;;;;;;;;;;26.17;48.35;94954.50;4999238;28;19918;-59
2022/08/08 12:43:28;;;;;;;;;;;;;;;26.11;48.15;94956.63;4992234;28;19991;-59
2022/08/08 12:45:53;;;;;;;;;;;;;;;26.09;48.12;94953.69;4985243;28;19913;-57
2022/08/08 12:48:20;;;;;;;;;;;;;;;26.06;48.02;94964.97;4986726;28;19918;-61
2022/08/08 12:50:48;;;;;;;;;;;;;;;26.03;48.11;94958.53;4992532;28;19961;-61
2022/08/08 12:53:27;;;;;;;;;;;;;;;25.96;47.97;94955.69;4986955;28;19953;-57
2022/08/08 12:56:01;;;;;;;;;;;;;;;25.93;48.27;94957.50;4996039;28;19957;-57
2022/08/08 12:58:27;;;;;;;;;;;;;;;25.91;48.31;94954.53;4985237;28;20296;-59
2022/08/08 13:00:52;;;;;;;;;;;;;;;25.96;48.09;94944.75;4985596;28;19910;-57
2022/08/08 13:03:24;;;;;;;;;;;;;;;25.95;48.21;94933.09;4987448;28;19920;-58